Time;durP1;ratioP1;P1;durP2;ratioP2;P2;SDS_P1;SDS_P2;PMS_P1;PMS_P2;Temp;Humidity;BMP_temperature;BMP_pressure;BME280_temperature;BME280_humidity;BME280_pressure;Samples;Min_cycle;Max_cycle;Signal;HPM_P1;HPM_P2
2021/04/10 00:00:56;;;;;;;13.77;12.00;;;9.60;99.90;;;;;;5073679;28;20205;-78
2021/04/10 00:03:22;;;;;;;17.77;14.30;;;9.50;99.90;;;;;;5073695;28;20193;-77
2021/04/10 00:05:48;;;;;;;14.63;13.10;;;9.50;99.90;;;;;;5066715;28;20217;-79
2021/04/10 00:08:14;;;;;;;17.27;13.80;;;9.40;99.90;;;;;;5071764;28;20247;-78
2021/04/10 00:10:39;;;;;;;16.10;12.60;;;9.30;99.90;;;;;;5078192;28;20596;-79
2021/04/10 00:13:05;;;;;;;23.43;12.93;;;9.30;99.90;;;;;;5096922;28;20406;-79
2021/04/10 00:15:31;;;;;;;22.30;14.90;;;9.40;99.90;;;;;;5078007;28;20171;-77
2021/04/10 00:17:56;;;;;;;18.43;15.17;;;9.40;99.90;;;;;;5070950;28;20209;-78
2021/04/10 00:20:23;;;;;;;18.07;15.47;;;9.30;99.90;;;;;;5078552;28;20193;-78
2021/04/10 00:22:49;;;;;;;20.13;15.77;;;9.30;99.90;;;;;;5051523;28;20170;-78
2021/04/10 00:25:16;;;;;;;20.97;15.20;;;9.30;99.90;;;;;;5064087;28;20417;-78
2021/04/10 00:27:41;;;;;;;21.13;15.60;;;9.40;99.90;;;;;;5072218;28;20439;-78
2021/04/10 00:30:12;;;;;;;16.20;14.10;;;9.50;99.90;;;;;;5074947;28;20416;-78
2021/04/10 00:32:38;;;;;;;16.20;14.47;;;9.50;99.90;;;;;;5076860;28;20174;-77
2021/04/10 00:35:05;;;;;;;17.93;15.40;;;9.50;99.90;;;;;;5075767;28;20448;-77
2021/04/10 00:37:30;;;;;;;17.57;14.90;;;9.50;99.90;;;;;;5071748;28;20185;-78
2021/04/10 00:39:56;;;;;;;28.23;16.80;;;9.60;99.90;;;;;;5075445;28;20428;-77
2021/04/10 00:42:22;;;;;;;19.87;14.50;;;9.50;99.90;;;;;;5091253;28;20542;-78
2021/04/10 00:44:47;;;;;;;19.03;15.17;;;9.60;99.90;;;;;;5092477;28;20178;-77
2021/04/10 00:47:13;;;;;;;18.13;15.83;;;9.60;99.90;;;;;;5067972;28;20198;-78
2021/04/10 00:49:38;;;;;;;18.57;15.20;;;9.60;99.90;;;;;;5087868;28;20178;-77
2021/04/10 00:52:06;;;;;;;15.50;13.37;;;9.50;99.90;;;;;;5093633;28;20675;-78
2021/04/10 00:54:32;;;;;;;18.43;14.60;;;9.60;99.90;;;;;;5090937;28;20170;-78
2021/04/10 00:56:57;;;;;;;21.60;16.10;;;9.70;99.90;;;;;;5093991;28;20526;-78
2021/04/10 00:59:23;;;;;;;18.73;14.77;;;9.70;99.90;;;;;;5066057;28;20443;-78
2021/04/10 01:01:49;;;;;;;18.53;13.53;;;9.90;99.90;;;;;;5077220;28;20190;-78
2021/04/10 01:04:14;;;;;;;13.57;12.17;;;9.90;99.90;;;;;;5083385;28;20172;-78
2021/04/10 01:06:40;;;;;;;17.13;12.73;;;9.70;99.90;;;;;;5090068;28;20193;-78
2021/04/10 01:09:05;;;;;;;17.70;14.43;;;9.60;99.90;;;;;;5073593;28;20584;-78
2021/04/10 01:11:37;;;;;;;18.90;14.57;;;9.50;99.90;;;;;;5087442;28;20186;-77
2021/04/10 01:14:22;;;;;;;15.00;13.33;;;9.50;99.90;;;;;;5087707;28;22016;-78
2021/04/10 01:17:09;;;;;;;15.50;13.90;;;9.60;99.90;;;;;;5053287;28;20405;-78
2021/04/10 01:19:41;;;;;;;23.67;14.50;;;9.50;99.90;;;;;;5060207;28;20432;-78
2021/04/10 01:22:15;;;;;;;24.47;14.87;;;9.50;99.90;;;;;;5068810;28;20456;-78
2021/04/10 01:24:57;;;;;;;16.83;15.03;;;9.40;99.90;;;;;;5072244;28;20939;-78
2021/04/10 01:27:46;;;;;;;15.37;13.73;;;9.50;99.90;;;;;;5071954;28;20459;-78
2021/04/10 01:30:15;;;;;;;21.17;15.57;;;9.50;99.90;;;;;;5073858;28;20448;-78
2021/04/10 01:32:55;;;;;;;18.47;14.73;;;9.50;99.90;;;;;;5086411;28;20486;-78
2021/04/10 01:35:22;;;;;;;18.67;14.30;;;9.60;99.90;;;;;;5073340;28;20453;-78
2021/04/10 01:37:53;;;;;;;16.10;14.40;;;9.70;99.90;;;;;;5087524;28;20526;-78
2021/04/10 01:40:22;;;;;;;20.17;15.70;;;9.60;99.90;;;;;;5082551;28;20807;-78
2021/04/10 01:42:50;;;;;;;20.40;15.17;;;9.60;99.90;;;;;;5089941;28;20510;-78
2021/04/10 01:45:16;;;;;;;19.13;16.07;;;9.60;99.90;;;;;;5079723;28;20781;-78
2021/04/10 01:47:45;;;;;;;18.40;14.47;;;9.70;99.90;;;;;;5065613;28;20577;-78
2021/04/10 01:50:12;;;;;;;21.27;15.83;;;9.80;99.90;;;;;;5062753;28;20782;-79
2021/04/10 01:52:38;;;;;;;21.00;14.97;;;9.90;99.90;;;;;;5053895;28;20407;-78
2021/04/10 01:55:05;;;;;;;18.13;14.10;;;9.90;99.90;;;;;;5069396;28;20460;-78
2021/04/10 01:57:32;;;;;;;15.50;13.00;;;9.90;99.90;;;;;;5075127;28;20435;-78
2021/04/10 01:59:59;;;;;;;15.70;14.10;;;9.80;99.90;;;;;;5081266;28;20783;-77
2021/04/10 02:02:26;;;;;;;16.07;14.20;;;9.70;99.90;;;;;;5083493;28;20438;-80
2021/04/10 02:04:52;;;;;;;20.27;15.77;;;9.70;99.90;;;;;;5089954;28;20424;-79
2021/04/10 02:07:25;;;;;;;16.27;14.53;;;9.50;99.90;;;;;;5093107;28;20455;-80
2021/04/10 02:09:53;;;;;;;16.70;14.30;;;9.60;99.90;;;;;;5081591;28;20904;-77
2021/04/10 02:12:24;;;;;;;17.13;15.10;;;9.60;99.90;;;;;;5070644;28;20778;-76
2021/04/10 02:14:51;;;;;;;19.13;15.70;;;9.60;99.90;;;;;;5080592;28;20523;-78
2021/04/10 02:17:20;;;;;;;19.67;16.20;;;9.60;99.90;;;;;;5074542;28;20445;-76
2021/04/10 02:19:46;;;;;;;18.73;14.70;;;9.70;99.90;;;;;;5087611;28;20436;-77
2021/04/10 02:22:14;;;;;;;18.77;16.07;;;9.70;99.90;;;;;;5076949;28;20804;-77
2021/04/10 02:24:40;;;;;;;19.57;17.40;;;9.70;99.90;;;;;;5082522;28;20444;-77
2021/04/10 02:27:06;;;;;;;17.83;14.93;;;9.80;99.90;;;;;;5093552;28;20463;-77
2021/04/10 02:29:33;;;;;;;17.77;15.60;;;9.80;99.90;;;;;;5091937;28;20588;-77
2021/04/10 02:32:06;;;;;;;21.03;17.50;;;9.80;99.90;;;;;;5087003;28;20197;-78
2021/04/10 02:34:36;;;;;;;18.00;15.93;;;9.90;99.90;;;;;;5090926;28;20414;-78
2021/04/10 02:37:02;;;;;;;21.50;16.60;;;9.90;99.90;;;;;;5082787;28;20933;-77
2021/04/10 02:39:29;;;;;;;21.23;17.20;;;9.90;99.90;;;;;;5090033;28;20441;-77
2021/04/10 02:42:00;;;;;;;23.20;18.53;;;9.90;99.90;;;;;;5087915;28;20517;-78
2021/04/10 02:44:34;;;;;;;22.37;17.13;;;9.90;99.90;;;;;;5076737;28;20435;-77
2021/04/10 02:47:05;;;;;;;22.33;19.87;;;9.90;99.90;;;;;;5088069;28;20494;-77
2021/04/10 02:49:36;;;;;;;21.07;18.60;;;9.80;99.90;;;;;;5087761;28;20485;-78
2021/04/10 02:52:03;;;;;;;19.97;17.43;;;9.90;99.90;;;;;;5088915;28;20847;-78
2021/04/10 02:54:32;;;;;;;22.37;19.30;;;10.00;99.90;;;;;;5091050;28;20445;-78
2021/04/10 02:57:18;;;;;;;25.30;18.90;;;10.00;99.90;;;;;;5077673;28;20909;-78
2021/04/10 02:59:47;;;;;;;20.37;17.53;;;10.00;99.90;;;;;;5072506;28;20412;-78
2021/04/10 03:02:15;;;;;;;23.53;17.47;;;10.00;99.90;;;;;;5090130;28;20441;-79
2021/04/10 03:04:42;;;;;;;19.80;16.90;;;9.90;99.90;;;;;;5072992;28;21157;-77
2021/04/10 03:07:09;;;;;;;24.63;17.40;;;9.90;99.90;;;;;;5060117;28;20468;-78
2021/04/10 03:09:38;;;;;;;19.53;17.50;;;10.00;99.90;;;;;;5070882;28;20448;-78
2021/04/10 03:12:04;;;;;;;23.03;17.70;;;10.00;99.90;;;;;;5072071;28;20440;-77
2021/04/10 03:14:30;;;;;;;20.03;17.80;;;9.90;99.90;;;;;;5086015;28;20427;-77
2021/04/10 03:16:58;;;;;;;19.30;17.23;;;9.80;99.90;;;;;;5073882;28;20445;-77
2021/04/10 03:19:25;;;;;;;20.73;17.60;;;9.80;99.90;;;;;;5079080;28;20438;-77
2021/04/10 03:21:51;;;;;;;20.67;18.47;;;9.90;99.90;;;;;;5089764;28;20494;-77
2021/04/10 03:24:16;;;;;;;20.27;17.60;;;9.90;99.90;;;;;;5079180;28;20460;-77
2021/04/10 03:26:42;;;;;;;22.33;17.40;;;9.80;99.90;;;;;;5075674;28;20205;-77
2021/04/10 03:29:09;;;;;;;20.67;17.30;;;9.80;99.90;;;;;;5083190;28;20182;-77
2021/04/10 03:31:35;;;;;;;20.40;18.20;;;9.80;99.90;;;;;;5080422;28;20517;-77
2021/04/10 03:34:03;;;;;;;27.70;17.80;;;9.80;99.90;;;;;;5079285;28;20440;-78
2021/04/10 03:36:28;;;;;;;19.13;16.57;;;9.70;99.90;;;;;;5070559;28;20209;-77
2021/04/10 03:38:54;;;;;;;22.50;17.23;;;9.70;99.90;;;;;;5087976;28;20465;-77
2021/04/10 03:41:22;;;;;;;22.37;18.63;;;9.80;99.90;;;;;;5080416;28;20195;-78
2021/04/10 03:43:48;;;;;;;19.93;16.37;;;9.70;99.90;;;;;;5085439;28;20543;-77
2021/04/10 03:46:13;;;;;;;21.43;16.90;;;9.70;99.90;;;;;;5071002;28;20456;-78
2021/04/10 03:48:39;;;;;;;22.33;17.93;;;9.70;99.90;;;;;;5071567;28;20408;-77
2021/04/10 03:51:05;;;;;;;18.30;16.30;;;9.70;99.90;;;;;;5071656;28;20265;-78
2021/04/10 03:53:31;;;;;;;19.27;16.77;;;9.70;99.90;;;;;;5075151;28;20205;-77
2021/04/10 03:55:56;;;;;;;20.90;16.90;;;9.60;99.90;;;;;;5071571;28;20432;-78
2021/04/10 03:58:22;;;;;;;19.20;16.67;;;9.50;99.90;;;;;;5071438;28;20182;-77
2021/04/10 04:00:47;;;;;;;20.10;17.67;;;9.50;99.90;;;;;;5071562;28;20232;-78
2021/04/10 04:03:13;;;;;;;21.83;18.17;;;9.50;99.90;;;;;;5071430;28;20181;-77
2021/04/10 04:05:39;;;;;;;26.60;17.60;;;9.50;99.90;;;;;;5072372;28;20181;-77
2021/04/10 04:08:05;;;;;;;20.60;16.17;;;9.30;99.90;;;;;;5071218;28;20181;-77
2021/04/10 04:10:30;;;;;;;22.47;17.90;;;9.10;99.90;;;;;;5067138;28;20444;-78
2021/04/10 04:12:56;;;;;;;19.33;17.07;;;9.10;99.90;;;;;;5082989;28;20488;-78
2021/04/10 04:15:22;;;;;;;23.67;19.47;;;8.90;99.90;;;;;;5076781;28;20173;-78
2021/04/10 04:17:47;;;;;;;20.93;18.07;;;8.70;99.90;;;;;;5075616;28;20404;-78
2021/04/10 04:20:13;;;;;;;23.63;18.47;;;8.70;99.90;;;;;;5089571;28;20201;-79
2021/04/10 04:22:39;;;;;;;21.43;19.17;;;8.70;99.90;;;;;;5094620;28;20173;-79
2021/04/10 04:25:07;;;;;;;22.63;19.87;;;8.60;99.90;;;;;;5090870;28;20437;-79
2021/04/10 04:27:36;;;;;;;23.50;20.30;;;8.70;99.90;;;;;;5079583;28;20206;-78
2021/04/10 04:30:06;;;;;;;24.00;20.43;;;8.80;99.90;;;;;;5084015;28;20462;-78
2021/04/10 04:32:32;;;;;;;23.10;19.30;;;8.90;99.90;;;;;;5073330;28;20416;-77
2021/04/10 04:34:57;;;;;;;23.63;18.97;;;8.90;99.90;;;;;;5079745;28;20504;-79
2021/04/10 04:37:23;;;;;;;24.87;20.63;;;8.90;99.90;;;;;;5089310;28;20264;-78
2021/04/10 04:39:49;;;;;;;22.60;19.80;;;9.00;99.90;;;;;;5079472;28;20586;-79
2021/04/10 04:42:14;;;;;;;23.80;19.43;;;9.00;99.90;;;;;;5074755;28;20182;-79
2021/04/10 04:44:41;;;;;;;20.53;18.33;;;9.00;99.90;;;;;;5074923;28;20177;-78
2021/04/10 04:47:06;;;;;;;19.57;17.20;;;9.00;99.90;;;;;;5090278;28;20201;-78
2021/04/10 04:49:32;;;;;;;17.77;15.50;;;9.00;99.90;;;;;;5085033;28;20432;-78
2021/04/10 04:51:58;;;;;;;20.50;16.80;;;9.00;99.90;;;;;;5087962;28;20201;-78
2021/04/10 04:54:23;;;;;;;22.63;18.50;;;8.90;99.90;;;;;;5078339;28;20174;-79
2021/04/10 04:56:49;;;;;;;18.70;15.80;;;8.90;99.90;;;;;;5063974;28;20182;-78
2021/04/10 04:59:15;;;;;;;22.17;19.60;;;8.80;99.90;;;;;;5083726;28;20219;-78
2021/04/10 05:01:41;;;;;;;22.27;17.73;;;8.70;99.90;;;;;;5079763;28;20444;-78
2021/04/10 05:04:07;;;;;;;20.80;17.97;;;8.70;99.90;;;;;;5073543;28;20431;-78
2021/04/10 05:06:32;;;;;;;24.30;18.77;;;8.70;99.90;;;;;;5072990;28;20205;-77
2021/04/10 05:08:58;;;;;;;23.57;19.00;;;8.50;99.90;;;;;;5089165;28;20184;-78
2021/04/10 05:11:24;;;;;;;20.73;18.63;;;8.60;99.90;;;;;;5073913;28;20542;-77
2021/04/10 05:13:51;;;;;;;24.93;20.40;;;8.70;99.90;;;;;;5071691;28;20177;-79
2021/04/10 05:16:17;;;;;;;21.83;18.90;;;8.50;99.90;;;;;;5073174;28;20174;-78
2021/04/10 05:18:43;;;;;;;25.60;20.23;;;8.50;99.90;;;;;;5079238;28;20431;-79
2021/04/10 05:21:08;;;;;;;24.63;20.80;;;8.60;99.90;;;;;;5072918;28;20444;-78
2021/04/10 05:23:34;;;;;;;23.10;19.60;;;8.60;99.90;;;;;;5073199;28;20174;-78
2021/04/10 05:25:59;;;;;;;24.70;18.67;;;8.70;99.90;;;;;;5091774;28;20197;-77
2021/04/10 05:28:25;;;;;;;22.43;20.03;;;8.70;99.90;;;;;;5093386;28;20169;-78
2021/04/10 05:30:50;;;;;;;25.13;19.73;;;8.70;99.90;;;;;;5080627;28;20554;-78
2021/04/10 05:33:16;;;;;;;26.87;20.70;;;8.70;99.90;;;;;;5080230;28;20181;-78
2021/04/10 05:35:41;;;;;;;22.67;20.27;;;8.80;99.90;;;;;;5073350;28;20171;-78
2021/04/10 05:38:07;;;;;;;23.60;18.50;;;8.80;99.90;;;;;;5088679;28;20753;-78
2021/04/10 05:40:33;;;;;;;25.23;21.07;;;8.80;99.90;;;;;;5087861;28;20201;-78
2021/04/10 05:42:58;;;;;;;26.57;20.47;;;8.90;99.90;;;;;;5073549;28;20659;-78
2021/04/10 05:45:24;;;;;;;22.63;19.27;;;9.00;99.90;;;;;;5086391;28;20197;-77
2021/04/10 05:47:50;;;;;;;25.93;21.73;;;9.00;99.90;;;;;;5086394;28;20285;-78
2021/04/10 05:50:16;;;;;;;23.63;21.13;;;9.10;99.90;;;;;;5085111;28;20584;-78
2021/04/10 05:52:41;;;;;;;25.93;20.30;;;9.00;99.90;;;;;;5084070;28;20220;-78
2021/04/10 05:55:08;;;;;;;25.47;19.83;;;9.00;99.90;;;;;;5070772;28;20443;-78
2021/04/10 05:57:33;;;;;;;22.37;19.97;;;9.00;99.90;;;;;;5073592;28;20182;-78
2021/04/10 05:59:59;;;;;;;24.20;19.60;;;8.90;99.90;;;;;;5079224;28;20950;-78
2021/04/10 06:02:25;;;;;;;24.00;18.83;;;8.70;99.90;;;;;;5072256;28;20441;-78
2021/04/10 06:04:51;;;;;;;21.57;17.47;;;8.60;99.90;;;;;;5074169;28;20186;-78
2021/04/10 06:07:18;;;;;;;22.80;19.67;;;8.60;99.90;;;;;;5072906;28;20563;-78
2021/04/10 06:09:44;;;;;;;27.50;21.67;;;8.60;99.90;;;;;;5078446;28;20408;-78
2021/04/10 06:12:10;;;;;;;26.87;22.27;;;8.50;99.90;;;;;;5087814;28;20516;-78
2021/04/10 06:14:35;;;;;;;28.50;21.17;;;8.70;99.90;;;;;;5089873;28;20428;-78
2021/04/10 06:17:01;;;;;;;28.77;23.00;;;8.80;99.90;;;;;;5092040;28;20446;-78
2021/04/10 06:19:27;;;;;;;24.27;21.60;;;8.90;99.90;;;;;;5085098;28;20224;-78
2021/04/10 06:21:52;;;;;;;23.87;20.93;;;9.00;99.90;;;;;;5077844;28;20459;-78
2021/04/10 06:24:18;;;;;;;25.87;21.10;;;9.10;99.90;;;;;;5078875;28;20221;-78
2021/04/10 06:26:44;;;;;;;27.27;21.57;;;9.30;99.90;;;;;;5072036;28;20679;-78
2021/04/10 06:29:10;;;;;;;24.40;20.70;;;9.30;99.90;;;;;;5088459;28;20236;-78
2021/04/10 06:31:36;;;;;;;24.77;20.20;;;9.40;99.90;;;;;;5070945;28;20470;-78
2021/04/10 06:34:01;;;;;;;23.30;20.90;;;9.50;99.90;;;;;;5078712;28;20423;-77
2021/04/10 06:36:27;;;;;;;27.77;23.70;;;9.70;99.90;;;;;;5090031;28;20181;-77
2021/04/10 06:38:53;;;;;;;24.50;21.37;;;9.80;99.90;;;;;;5091378;28;20173;-77
2021/04/10 06:41:20;;;;;;;22.17;19.70;;;9.80;99.90;;;;;;5091057;28;20200;-78
2021/04/10 06:43:46;;;;;;;24.27;19.63;;;9.80;99.90;;;;;;5082621;28;20503;-78
2021/04/10 06:46:12;;;;;;;26.97;19.60;;;9.90;99.90;;;;;;5089673;28;20465;-78
2021/04/10 06:48:39;;;;;;;20.50;17.73;;;9.90;99.90;;;;;;5072925;28;20173;-78
2021/04/10 06:51:05;;;;;;;25.10;20.13;;;9.90;99.90;;;;;;5077465;28;20201;-78
2021/04/10 06:53:33;;;;;;;25.00;18.53;;;9.90;99.90;;;;;;5091813;28;20407;-78
2021/04/10 06:56:02;;;;;;;21.43;19.23;;;9.90;99.90;;;;;;5077886;28;20488;-78
2021/04/10 06:58:51;;;;;;;25.27;20.00;;;9.90;99.90;;;;;;5092883;28;20419;-78
2021/04/10 07:01:17;;;;;;;19.70;17.50;;;10.00;99.90;;;;;;5066876;28;20820;-79
2021/04/10 07:03:44;;;;;;;20.47;18.30;;;10.10;99.90;;;;;;5072266;28;20423;-78
2021/04/10 07:06:10;;;;;;;21.67;18.97;;;10.10;99.90;;;;;;5071473;28;20202;-78
2021/04/10 07:08:37;;;;;;;21.80;19.10;;;10.20;99.90;;;;;;5077652;28;20927;-79
2021/04/10 07:11:04;;;;;;;24.50;19.50;;;10.20;99.90;;;;;;5079692;28;20447;-79
2021/04/10 07:13:29;;;;;;;19.73;15.27;;;10.40;99.90;;;;;;5071511;28;20439;-79
2021/04/10 07:15:59;;;;;;;20.50;16.23;;;10.40;99.90;;;;;;5069569;28;20470;-78
2021/04/10 07:18:28;;;;;;;16.47;14.77;;;10.40;99.90;;;;;;5072125;28;20249;-79
2021/04/10 07:21:21;;;;;;;17.03;14.73;;;10.50;99.90;;;;;;5074285;28;20443;-78
2021/04/10 07:23:53;;;;;;;20.70;14.97;;;10.60;99.90;;;;;;5077065;28;20416;-79
2021/04/10 07:26:22;;;;;;;17.33;14.33;;;10.80;99.90;;;;;;5070167;28;20512;-79
2021/04/10 07:28:48;;;;;;;17.90;13.80;;;10.80;99.90;;;;;;5070048;28;20417;-77
2021/04/10 07:31:15;;;;;;;21.30;15.80;;;11.00;99.90;;;;;;5090109;28;20877;-79
2021/04/10 07:33:57;;;;;;;21.30;13.70;;;11.10;99.90;;;;;;5085495;28;20423;-79
2021/04/10 07:36:23;;;;;;;14.83;12.90;;;11.40;99.90;;;;;;5091603;28;20515;-79
2021/04/10 07:38:56;;;;;;;14.43;12.93;;;11.70;99.90;;;;;;5087403;28;20994;-78
2021/04/10 07:41:22;;;;;;;16.33;13.53;;;11.90;99.90;;;;;;5075110;28;20205;-77
2021/04/10 07:43:47;;;;;;;15.47;12.90;;;12.10;99.90;;;;;;5090887;28;20426;-79
2021/04/10 07:46:31;;;;;;;14.27;12.90;;;12.50;99.90;;;;;;5084267;28;20577;-79
2021/04/10 07:49:13;;;;;;;15.03;13.40;;;12.70;99.90;;;;;;5093024;28;20206;-76
2021/04/10 07:52:08;;;;;;;14.27;12.10;;;12.80;99.90;;;;;;5079042;28;20498;-79
2021/04/10 07:54:36;;;;;;;17.07;11.07;;;12.60;99.90;;;;;;5060937;28;20511;-78
2021/04/10 07:57:05;;;;;;;15.73;12.83;;;12.60;99.90;;;;;;5067629;28;20424;-78
2021/04/10 07:59:53;;;;;;;14.87;11.67;;;12.60;99.90;;;;;;5073036;28;20420;-80
2021/04/10 08:02:20;;;;;;;16.87;11.53;;;12.80;99.90;;;;;;5079625;28;20435;-79
2021/04/10 08:04:57;;;;;;;12.33;10.80;;;12.90;99.90;;;;;;5068258;28;20431;-77
2021/04/10 08:07:31;;;;;;;13.83;12.43;;;13.20;99.90;;;;;;5068147;28;20467;-78
2021/04/10 08:10:05;;;;;;;12.50;11.30;;;13.10;99.90;;;;;;5071877;28;20420;-80
2021/04/10 08:12:37;;;;;;;12.30;10.60;;;13.30;99.90;;;;;;5074857;28;20511;-79
2021/04/10 08:15:07;;;;;;;11.63;9.83;;;13.40;99.90;;;;;;5074112;28;20432;-79
2021/04/10 08:17:41;;;;;;;10.07;9.07;;;13.60;99.90;;;;;;5071677;28;20948;-78
2021/04/10 08:20:27;;;;;;;16.63;11.87;;;13.70;99.90;;;;;;5068763;28;20429;-79
2021/04/10 08:23:14;;;;;;;11.57;10.50;;;13.60;99.90;;;;;;5066391;28;20428;-77
2021/04/10 08:25:39;;;;;;;10.90;9.73;;;13.40;99.90;;;;;;5069536;28;20434;-78
2021/04/10 08:28:05;;;;;;;10.00;8.90;;;13.40;99.90;;;;;;5068992;28;20474;-77
2021/04/10 08:30:31;;;;;;;13.17;9.37;;;13.10;99.90;;;;;;5069092;28;20289;-78
2021/04/10 08:32:56;;;;;;;11.00;9.00;;;13.20;99.90;;;;;;5071029;28;20457;-78
2021/04/10 08:35:22;;;;;;;11.40;8.70;;;13.30;99.90;;;;;;5081382;28;20170;-78
2021/04/10 08:37:55;;;;;;;9.63;8.63;;;13.10;99.90;;;;;;5090806;28;20170;-78
2021/04/10 08:40:23;;;;;;;7.67;6.87;;;12.90;99.90;;;;;;5075089;28;20444;-78
2021/04/10 08:42:50;;;;;;;10.40;7.10;;;12.60;99.90;;;;;;5084895;28;20450;-77
2021/04/10 08:45:16;;;;;;;10.07;8.60;;;12.50;99.90;;;;;;5077529;28;20427;-77
2021/04/10 08:47:42;;;;;;;12.73;11.43;;;12.40;99.90;;;;;;5091477;28;20454;-78
2021/04/10 08:50:12;;;;;;;17.40;14.20;;;12.20;99.90;;;;;;5079426;28;20440;-78
2021/04/10 08:52:38;;;;;;;17.27;13.80;;;12.20;99.90;;;;;;5069388;28;20478;-78
2021/04/10 08:55:10;;;;;;;16.63;13.67;;;12.20;99.90;;;;;;5072946;28;20446;-78
2021/04/10 08:57:38;;;;;;;13.07;11.67;;;12.30;99.90;;;;;;5073882;28;20411;-78
2021/04/10 09:00:17;;;;;;;15.20;12.20;;;12.50;99.90;;;;;;5072739;28;20495;-78
2021/04/10 09:02:58;;;;;;;13.63;12.23;;;12.30;99.90;;;;;;5053662;28;20428;-78
2021/04/10 09:05:43;;;;;;;13.63;11.87;;;12.20;99.90;;;;;;5073842;28;20489;-78
2021/04/10 09:08:09;;;;;;;13.10;11.70;;;12.30;99.90;;;;;;5091168;28;20439;-79
2021/04/10 09:10:40;;;;;;;10.20;9.20;;;12.50;99.90;;;;;;5078270;28;20503;-78
2021/04/10 09:13:13;;;;;;;9.90;8.07;;;12.50;99.90;;;;;;5070783;28;20563;-78
2021/04/10 09:15:38;;;;;;;12.37;10.57;;;12.80;99.90;;;;;;5075102;28;20409;-78
2021/04/10 09:18:06;;;;;;;12.40;9.77;;;12.90;99.90;;;;;;5074074;28;20520;-78
2021/04/10 09:20:43;;;;;;;15.90;12.20;;;13.00;99.90;;;;;;5071770;28;20196;-78
2021/04/10 09:23:35;;;;;;;10.87;9.80;;;13.40;99.90;;;;;;5070414;28;20729;-78
2021/04/10 09:26:20;;;;;;;13.17;11.87;;;13.60;99.90;;;;;;5079117;28;20539;-79
2021/04/10 09:28:54;;;;;;;10.33;9.27;;;13.80;99.90;;;;;;5077712;28;20827;-78
2021/04/10 09:31:39;;;;;;;13.10;9.93;;;14.00;99.90;;;;;;5088901;28;20470;-78
2021/04/10 09:34:05;;;;;;;18.97;12.67;;;14.00;99.90;;;;;;5070220;28;20512;-78
2021/04/10 09:36:49;;;;;;;16.30;14.37;;;14.10;99.90;;;;;;5054042;28;20938;-78
2021/04/10 09:39:52;;;;;;;17.60;15.90;;;14.40;99.90;;;;;;5078013;28;20427;-78
2021/04/10 09:45:07;;;;;;;18.23;16.30;;;14.30;99.90;;;;;;5065460;28;20420;-78
2021/04/10 09:47:54;;;;;;;17.80;15.90;;;14.40;99.90;;;;;;5073811;28;20882;-78
2021/04/10 09:50:24;;;;;;;20.60;15.50;;;14.50;99.90;;;;;;5079996;28;20535;-79
2021/04/10 09:53:08;;;;;;;18.50;15.20;;;14.60;99.90;;;;;;5086158;28;20959;-78
2021/04/10 09:55:39;;;;;;;14.97;13.33;;;14.60;99.90;;;;;;5091373;28;20789;-77
2021/04/10 09:58:11;;;;;;;13.43;12.30;;;14.70;99.90;;;;;;5092956;28;20502;-77
2021/04/10 10:00:51;;;;;;;15.40;13.73;;;14.50;99.90;;;;;;5074749;28;20452;-78
2021/04/10 10:03:19;;;;;;;12.70;11.53;;;14.30;99.90;;;;;;5079205;28;20419;-77
2021/04/10 10:05:47;;;;;;;30.80;25.17;;;14.20;99.90;;;;;;5080522;28;20423;-78
2021/04/10 10:08:14;;;;;;;11.73;10.50;;;13.90;99.90;;;;;;5092204;28;21029;-79
2021/04/10 10:10:48;;;;;;;11.93;10.63;;;13.70;99.90;;;;;;5082150;28;20811;-77
2021/04/10 10:13:29;;;;;;;12.47;9.97;;;13.90;99.90;;;;;;5072045;28;20433;-79
2021/04/10 10:15:55;;;;;;;11.20;9.67;;;14.00;99.90;;;;;;5067345;28;20441;-77
2021/04/10 10:18:22;;;;;;;11.27;9.77;;;13.80;99.90;;;;;;5059606;28;20465;-77
2021/04/10 10:20:54;;;;;;;8.70;7.83;;;14.00;99.90;;;;;;5077739;28;20207;-79
2021/04/10 10:23:19;;;;;;;9.77;8.87;;;13.80;99.90;;;;;;5053458;28;20406;-79
2021/04/10 10:25:45;;;;;;;9.03;8.13;;;13.70;99.90;;;;;;5084787;28;20457;-79
2021/04/10 10:28:19;;;;;;;9.30;8.50;;;13.70;99.90;;;;;;5090072;28;20681;-78
2021/04/10 10:30:45;;;;;;;8.77;8.03;;;13.50;99.90;;;;;;5093016;28;20446;-80
2021/04/10 10:33:11;;;;;;;8.33;7.53;;;13.30;99.90;;;;;;5079313;28;20466;-80
2021/04/10 10:35:37;;;;;;;9.97;8.10;;;13.20;99.90;;;;;;5083172;28;20439;-81
2021/04/10 10:38:05;;;;;;;12.90;9.87;;;13.10;99.90;;;;;;5084813;28;20448;-77
2021/04/10 10:40:31;;;;;;;10.97;9.57;;;12.80;99.90;;;;;;5063098;28;20470;-81
2021/04/10 10:43:08;;;;;;;10.73;9.73;;;12.70;99.90;;;;;;5075136;28;20900;-80
2021/04/10 10:45:39;;;;;;;11.53;10.47;;;12.50;99.90;;;;;;5083658;28;20192;-78
2021/04/10 10:48:37;;;;;;;13.20;11.90;;;12.30;99.90;;;;;;5074654;28;20503;-80
2021/04/10 10:51:12;;;;;;;16.60;11.60;;;12.10;99.90;;;;;;5091777;28;20807;-80
2021/04/10 10:53:41;;;;;;;12.37;11.07;;;12.20;99.90;;;;;;5080012;28;20502;-80
2021/04/10 10:56:20;;;;;;;12.83;11.63;;;12.20;99.90;;;;;;5072422;28;21119;-79
2021/04/10 10:58:51;;;;;;;12.70;11.40;;;12.10;99.90;;;;;;5073684;28;20977;-80
2021/04/10 11:01:24;;;;;;;53.83;42.80;;;12.20;99.90;;;;;;5074624;28;20982;-80
2021/04/10 11:04:06;;;;;;;14.10;12.07;;;12.10;99.90;;;;;;5073580;28;20458;-80
2021/04/10 11:06:42;;;;;;;15.23;13.43;;;12.10;99.90;;;;;;5076520;28;20451;-79
2021/04/10 11:09:10;;;;;;;14.80;12.60;;;11.90;99.90;;;;;;5074236;28;20486;-80
2021/04/10 11:11:39;;;;;;;15.43;13.73;;;12.00;99.90;;;;;;5080362;28;20460;-80
2021/04/10 11:14:05;;;;;;;16.27;14.50;;;12.00;99.90;;;;;;5072350;28;20421;-79
2021/04/10 11:16:31;;;;;;;20.37;15.53;;;12.00;99.90;;;;;;5068826;28;20960;-77
2021/04/10 11:18:58;;;;;;;16.10;14.40;;;11.80;99.90;;;;;;5070562;28;20426;-78
2021/04/10 11:21:30;;;;;;;17.00;15.10;;;11.90;99.90;;;;;;5071334;28;20479;-80
2021/04/10 11:24:07;;;;;;;17.33;14.90;;;11.90;99.90;;;;;;5070710;28;20462;-80
2021/04/10 11:26:42;;;;;;;18.47;16.50;;;12.00;99.90;;;;;;5067017;28;20461;-79
2021/04/10 11:29:32;;;;;;;17.53;15.67;;;11.90;99.90;;;;;;5071821;28;21041;-79
2021/04/10 11:32:13;;;;;;;21.30;16.50;;;12.00;99.90;;;;;;5088000;28;20438;-78
2021/04/10 11:34:48;;;;;;;16.83;15.17;;;11.90;99.90;;;;;;5078561;28;20426;-80
2021/04/10 11:37:17;;;;;;;17.63;15.90;;;11.90;99.90;;;;;;5073219;28;20871;-80
2021/04/10 11:40:00;;;;;;;17.13;15.33;;;11.80;99.90;;;;;;5070098;28;20859;-78
2021/04/10 11:42:30;;;;;;;18.00;16.20;;;11.90;99.90;;;;;;5091814;28;20404;-78
2021/04/10 11:44:58;;;;;;;15.90;14.10;;;11.80;99.90;;;;;;5071946;28;20436;-79
2021/04/10 11:47:32;;;;;;;18.73;15.40;;;12.10;99.90;;;;;;5060233;28;20621;-78
2021/04/10 11:50:12;;;;;;;18.80;14.30;;;12.20;99.90;;;;;;5071366;28;20430;-77
2021/04/10 11:52:40;;;;;;;17.47;15.67;;;12.30;99.90;;;;;;5075197;28;20532;-78
2021/04/10 11:55:14;;;;;;;18.70;14.90;;;12.30;99.90;;;;;;5079645;28;20455;-79
2021/04/10 11:57:42;;;;;;;16.20;14.23;;;12.30;99.90;;;;;;5089942;28;20465;-78
2021/04/10 12:00:22;;;;;;;16.40;14.70;;;12.30;99.90;;;;;;5067089;28;22259;-78
2021/04/10 12:02:48;;;;;;;17.03;14.80;;;12.40;99.90;;;;;;5072908;28;20458;-77
2021/04/10 12:05:22;;;;;;;17.30;15.47;;;12.50;99.90;;;;;;5071036;28;20416;-78
2021/04/10 12:08:02;;;;;;;16.90;15.20;;;12.50;99.90;;;;;;5089353;28;20489;-78
2021/04/10 12:10:28;;;;;;;14.20;12.10;;;12.50;99.90;;;;;;5076435;28;20847;-78
2021/04/10 12:12:53;;;;;;;16.10;12.80;;;12.40;99.90;;;;;;5076536;28;20443;-80
2021/04/10 12:15:32;;;;;;;17.10;13.37;;;12.20;99.90;;;;;;5077524;28;20178;-79
2021/04/10 12:17:58;;;;;;;17.47;12.93;;;12.30;99.90;;;;;;5064778;28;20189;-79
2021/04/10 12:20:24;;;;;;;14.10;12.63;;;12.20;99.90;;;;;;5070724;28;20436;-77
2021/04/10 12:22:50;;;;;;;16.93;14.47;;;12.10;99.90;;;;;;5071873;28;21141;-79
2021/04/10 12:25:15;;;;;;;17.57;14.20;;;12.00;99.90;;;;;;5077831;28;20174;-78
2021/04/10 12:27:41;;;;;;;16.17;14.27;;;11.90;99.90;;;;;;5078582;28;20252;-80
2021/04/10 12:30:07;;;;;;;22.23;14.53;;;11.80;99.90;;;;;;5077141;28;20651;-80
2021/04/10 12:32:33;;;;;;;14.37;12.87;;;11.70;99.90;;;;;;5076863;28;20168;-79
2021/04/10 12:34:59;;;;;;;16.70;15.00;;;11.70;99.90;;;;;;5059728;28;20420;-79
2021/04/10 12:37:25;;;;;;;15.60;13.50;;;11.50;99.90;;;;;;5057881;28;20482;-80
2021/04/10 12:39:51;;;;;;;19.10;15.83;;;11.30;99.90;;;;;;5069824;28;21077;-81
2021/04/10 12:42:17;;;;;;;23.50;16.50;;;11.20;99.90;;;;;;5087798;28;20477;-79
2021/04/10 12:44:42;;;;;;;21.43;17.23;;;11.20;99.90;;;;;;5086671;28;20677;-79
2021/04/10 12:47:15;;;;;;;18.57;15.13;;;11.20;99.90;;;;;;5073177;28;20198;-80